createdAt,value
2023-05-10T00:00:19.404Z,3.30
2023-05-10T00:03:23.090Z,3.50
2023-05-10T00:06:26.712Z,3.13
2023-05-10T00:09:29.371Z,4.25
2023-05-10T00:12:32.669Z,3.55
2023-05-10T00:15:35.540Z,3.28
2023-05-10T00:18:38.395Z,4.20
2023-05-10T00:21:41.279Z,3.30
2023-05-10T00:24:43.959Z,5.10
2023-05-10T00:27:46.220Z,4.22
2023-05-10T00:30:48.781Z,4.10
2023-05-10T00:33:51.902Z,3.70
2023-05-10T00:36:55.387Z,7.05
2023-05-10T00:39:58.151Z,5.07
2023-05-10T00:43:00.782Z,5.57
2023-05-10T00:46:03.530Z,5.18
2023-05-10T00:49:06.642Z,4.80
2023-05-10T00:52:09.007Z,6.70
2023-05-10T00:55:12.536Z,5.30
2023-05-10T00:58:16.295Z,7.90
2023-05-10T01:01:18.908Z,5.88
2023-05-10T01:04:21.416Z,5.53
2023-05-10T01:07:24.909Z,6.35
2023-05-10T01:10:27.670Z,6.70
2023-05-10T01:13:30.511Z,6.05
2023-05-10T01:16:33.804Z,7.03
2023-05-10T01:22:56.631Z,6.22
2023-05-10T01:26:00.053Z,6.18
2023-05-10T01:29:03.175Z,5.85
2023-05-10T01:32:05.648Z,6.25
2023-05-10T01:35:07.843Z,6.32
2023-05-10T01:38:10.165Z,7.25
2023-05-10T01:41:13.034Z,9.00
2023-05-10T01:44:15.325Z,9.52
2023-05-10T01:47:18.148Z,8.32
2023-05-10T01:50:21.281Z,7.28
2023-05-10T01:53:25.904Z,7.47
2023-05-10T01:56:29.466Z,9.30
2023-05-10T01:59:32.657Z,8.85
2023-05-10T02:02:35.462Z,10.18
2023-05-10T02:05:38.588Z,8.65
2023-05-10T02:08:40.589Z,8.98
2023-05-10T02:11:43.311Z,10.52
2023-05-10T02:14:46.182Z,10.32
2023-05-10T02:17:49.805Z,9.68
2023-05-10T02:20:52.946Z,8.98
2023-05-10T02:23:55.667Z,8.82
2023-05-10T02:26:58.235Z,8.60
2023-05-10T02:30:00.771Z,9.52
2023-05-10T02:33:03.234Z,9.60
2023-05-10T02:36:06.264Z,11.23
2023-05-10T02:39:08.449Z,10.07
2023-05-10T02:42:11.349Z,9.40
2023-05-10T02:45:13.658Z,9.60
2023-05-10T02:48:18.337Z,9.77
2023-05-10T02:51:21.243Z,10.48
2023-05-10T02:54:24.065Z,9.25
2023-05-10T02:57:27.035Z,10.43
2023-05-10T03:00:30.119Z,10.48
2023-05-10T03:03:33.012Z,9.98
2023-05-10T03:06:35.772Z,8.35
2023-05-10T03:09:40.016Z,9.75
2023-05-10T03:12:42.658Z,10.18
2023-05-10T03:15:44.697Z,9.02
2023-05-10T03:18:47.254Z,7.57
2023-05-10T03:21:50.793Z,9.25
2023-05-10T03:24:52.872Z,8.95
2023-05-10T03:27:55.712Z,9.95
2023-05-10T03:30:59.928Z,9.27
2023-05-10T03:34:02.639Z,10.27
2023-05-10T03:37:05.286Z,10.85
2023-05-10T03:40:08.129Z,10.00
2023-05-10T03:43:12.794Z,9.75
2023-05-10T03:46:15.137Z,11.70
2023-05-10T03:49:18.100Z,15.07
2023-05-10T03:52:21.093Z,19.65
2023-05-10T03:55:23.717Z,20.40
2023-05-10T03:58:26.601Z,21.40
2023-05-10T04:01:29.877Z,23.17
2023-05-10T04:04:33.203Z,19.35
2023-05-10T04:07:36.281Z,18.67
2023-05-10T04:10:39.940Z,21.10
2023-05-10T04:13:43.000Z,17.98
2023-05-10T04:16:46.325Z,19.30
2023-05-10T04:19:49.370Z,19.13
2023-05-10T04:22:52.424Z,16.15
2023-05-10T04:25:55.215Z,16.70
2023-05-10T04:28:57.696Z,15.75
2023-05-10T04:32:00.457Z,15.60
2023-05-10T04:35:03.185Z,15.55
2023-05-10T04:38:05.467Z,15.82
2023-05-10T04:41:08.565Z,16.25
2023-05-10T04:44:11.445Z,16.77
2023-05-10T04:47:14.874Z,12.45
2023-05-10T04:50:19.288Z,14.00
2023-05-10T04:53:23.078Z,15.43
2023-05-10T04:56:25.630Z,14.45
2023-05-10T04:59:28.306Z,15.75
2023-05-10T05:02:31.867Z,14.40
2023-05-10T05:05:34.859Z,13.73
2023-05-10T05:08:37.815Z,16.60
2023-05-10T05:11:40.614Z,14.77
2023-05-10T05:14:43.131Z,14.02
2023-05-10T05:17:45.792Z,13.43
2023-05-10T05:20:49.007Z,13.32
2023-05-10T05:23:51.541Z,14.25
2023-05-10T05:26:54.994Z,14.18
2023-05-10T05:29:57.732Z,14.55
2023-05-10T05:33:00.869Z,14.13
2023-05-10T05:36:02.950Z,14.00
2023-05-10T05:39:06.094Z,12.98
2023-05-10T05:42:09.051Z,14.27
2023-05-10T05:45:12.058Z,13.65
2023-05-10T05:48:14.583Z,13.27
2023-05-10T05:51:17.260Z,16.40
2023-05-10T05:54:19.550Z,15.20
2023-05-10T05:57:22.227Z,15.82
2023-05-10T06:00:25.803Z,15.25
2023-05-10T06:03:28.872Z,14.70
2023-05-10T06:06:32.204Z,16.05
2023-05-10T06:09:34.641Z,14.75
2023-05-10T06:12:37.492Z,15.68
2023-05-10T06:15:41.059Z,15.57
2023-05-10T06:18:44.026Z,16.52
2023-05-10T06:21:47.311Z,13.60
2023-05-10T06:24:50.372Z,14.25
2023-05-10T06:27:53.975Z,15.68
2023-05-10T06:30:56.484Z,12.27
2023-05-10T06:33:58.784Z,13.60
2023-05-10T06:37:01.070Z,15.63
2023-05-10T06:40:03.805Z,14.10
2023-05-10T06:43:06.248Z,15.00
2023-05-10T06:46:09.959Z,12.15
2023-05-10T06:49:12.762Z,14.95
2023-05-10T06:52:15.540Z,15.57
2023-05-10T06:55:18.340Z,14.88
2023-05-10T06:58:21.001Z,14.05
2023-05-10T07:01:23.911Z,15.00
2023-05-10T07:04:26.735Z,13.02
2023-05-10T07:07:29.761Z,14.02
2023-05-10T07:10:32.007Z,14.65
2023-05-10T07:13:34.865Z,13.93
2023-05-10T07:16:38.356Z,14.40
2023-05-10T07:19:41.877Z,12.52
2023-05-10T07:22:44.447Z,13.45
2023-05-10T07:25:46.616Z,14.70
2023-05-10T07:28:49.447Z,13.35
2023-05-10T07:31:52.058Z,12.80
2023-05-10T07:34:55.145Z,11.98
2023-05-10T07:37:57.436Z,13.02
2023-05-10T07:40:59.840Z,11.38
2023-05-10T07:44:02.794Z,12.50
2023-05-10T07:47:05.517Z,12.48
2023-05-10T07:50:07.794Z,11.45
2023-05-10T07:53:10.460Z,11.80
2023-05-10T07:56:13.651Z,12.80
2023-05-10T07:59:16.072Z,12.00
2023-05-10T08:02:18.299Z,11.27
2023-05-10T08:05:21.111Z,10.85
2023-05-10T08:08:23.734Z,13.90
2023-05-10T08:11:26.247Z,10.70
2023-05-10T08:14:29.142Z,10.52
2023-05-10T08:17:32.994Z,9.80
2023-05-10T08:20:35.477Z,9.00
2023-05-10T08:23:37.723Z,9.25
2023-05-10T08:26:40.102Z,7.70
2023-05-10T08:29:49.917Z,8.57
2023-05-10T08:32:53.391Z,8.73
2023-05-10T08:35:56.169Z,7.38
2023-05-10T08:38:58.685Z,7.03
2023-05-10T08:42:01.506Z,8.70
2023-05-10T08:45:05.383Z,8.38
2023-05-10T08:48:08.112Z,6.75
2023-05-10T08:51:11.087Z,8.05
2023-05-10T08:54:14.521Z,6.20
2023-05-10T08:57:17.070Z,6.18
2023-05-10T09:00:19.577Z,6.15
2023-05-10T09:03:22.062Z,5.95
2023-05-10T09:06:25.374Z,5.60
2023-05-10T09:09:28.854Z,5.38
2023-05-10T09:12:32.285Z,5.10
2023-05-10T09:15:35.344Z,5.32
2023-05-10T09:18:37.924Z,5.18
2023-05-10T09:21:39.966Z,5.90
2023-05-10T09:24:43.197Z,4.97
2023-05-10T09:27:46.645Z,5.25
2023-05-10T09:30:50.019Z,6.03
2023-05-10T09:33:52.633Z,4.72
2023-05-10T09:36:55.443Z,5.05
2023-05-10T09:39:58.515Z,4.28
2023-05-10T09:43:01.512Z,5.20
2023-05-10T09:46:04.305Z,5.18
2023-05-10T09:49:06.638Z,4.88
2023-05-10T09:52:09.343Z,4.25
2023-05-10T09:55:11.657Z,4.47
2023-05-10T09:58:14.394Z,4.38
2023-05-10T10:01:18.155Z,5.95
2023-05-10T10:04:21.649Z,4.22
2023-05-10T10:07:23.756Z,4.93
2023-05-10T10:10:26.090Z,5.30
2023-05-10T10:13:28.346Z,4.28
2023-05-10T10:16:31.596Z,5.05
2023-05-10T10:19:34.794Z,5.88
2023-05-10T10:22:38.242Z,5.15
2023-05-10T10:25:40.726Z,6.57
2023-05-10T10:28:43.903Z,11.15
2023-05-10T10:31:47.061Z,23.80
2023-05-10T10:34:49.869Z,21.02
2023-05-10T10:37:52.115Z,31.35
2023-05-10T10:40:54.784Z,22.83
2023-05-10T10:43:57.378Z,21.33
2023-05-10T10:47:00.061Z,16.67
2023-05-10T10:50:03.297Z,16.02
2023-05-10T10:53:06.272Z,15.20
2023-05-10T10:56:08.375Z,13.48
2023-05-10T10:59:11.244Z,12.48
2023-05-10T11:02:14.068Z,13.48
2023-05-10T11:05:17.468Z,9.90
2023-05-10T11:08:20.746Z,10.30
2023-05-10T11:11:23.491Z,11.85
2023-05-10T11:14:26.243Z,9.10
2023-05-10T11:17:29.294Z,8.85
2023-05-10T11:20:32.711Z,9.43
2023-05-10T11:23:35.421Z,7.97
2023-05-10T11:26:37.748Z,9.88
2023-05-10T11:29:40.885Z,7.60
2023-05-10T11:32:44.610Z,9.40
2023-05-10T11:35:47.663Z,10.55
2023-05-10T11:38:50.426Z,10.23
2023-05-10T11:41:53.179Z,8.63
2023-05-10T11:44:55.931Z,7.60
2023-05-10T11:47:58.620Z,7.95
2023-05-10T11:51:01.606Z,7.97
2023-05-10T11:54:04.458Z,9.48
2023-05-10T11:57:07.410Z,9.10
2023-05-10T12:00:09.803Z,8.18
2023-05-10T12:03:12.610Z,7.05
2023-05-10T12:06:16.124Z,6.57
2023-05-10T12:09:22.970Z,8.35
2023-05-10T12:12:34.710Z,7.55
2023-05-10T12:15:38.213Z,7.63
2023-05-10T12:18:40.516Z,7.47
2023-05-10T12:21:43.575Z,7.40
2023-05-10T12:24:46.105Z,6.50
2023-05-10T12:27:48.856Z,5.70
2023-05-10T12:30:51.102Z,5.47
2023-05-10T12:33:53.848Z,6.72
2023-05-10T12:36:57.175Z,6.22
2023-05-10T12:40:00.731Z,6.25
2023-05-10T12:43:03.512Z,6.53
2023-05-10T12:46:06.428Z,5.75
2023-05-10T12:49:09.871Z,5.50
2023-05-10T12:52:12.716Z,3.30
2023-05-10T12:55:15.690Z,4.95
2023-05-10T12:58:34.454Z,4.47
2023-05-10T13:01:38.562Z,4.88
2023-05-10T13:04:42.686Z,4.13
2023-05-10T13:07:46.300Z,4.25
2023-05-10T13:10:50.264Z,4.57
2023-05-10T13:13:53.692Z,4.95
2023-05-10T13:16:57.457Z,3.85
2023-05-10T13:20:00.558Z,4.53
2023-05-10T13:23:02.787Z,3.60
2023-05-10T13:26:05.397Z,4.22
2023-05-10T13:29:08.405Z,6.20
2023-05-10T13:32:10.680Z,3.60
2023-05-10T13:35:13.750Z,4.07
2023-05-10T13:38:16.509Z,3.35
2023-05-10T13:41:19.313Z,5.10
2023-05-10T13:44:21.494Z,5.28
2023-05-10T13:47:24.654Z,6.00
2023-05-10T13:50:26.905Z,3.70
2023-05-10T13:53:29.789Z,3.78
2023-05-10T13:56:32.492Z,3.15
2023-05-10T13:59:34.986Z,3.13
2023-05-10T14:02:37.970Z,4.90
2023-05-10T14:05:40.820Z,3.47
2023-05-10T14:08:44.598Z,3.22
2023-05-10T14:11:47.887Z,2.63
2023-05-10T14:14:50.914Z,5.00
2023-05-10T14:17:53.724Z,2.97
2023-05-10T14:20:56.476Z,2.83
2023-05-10T14:23:59.235Z,2.72
2023-05-10T14:27:02.265Z,2.63
2023-05-10T14:30:05.091Z,2.20
2023-05-10T14:33:07.323Z,2.25
2023-05-10T14:36:10.452Z,2.22
2023-05-10T14:39:13.125Z,2.55
2023-05-10T14:42:15.719Z,2.72
2023-05-10T14:45:18.554Z,3.50
2023-05-10T14:48:21.144Z,2.85
2023-05-10T14:51:24.090Z,3.15
2023-05-10T14:54:27.215Z,3.53
2023-05-10T14:57:30.247Z,2.30
2023-05-10T15:00:33.234Z,3.30
2023-05-10T15:03:37.805Z,3.55
2023-05-10T15:06:41.631Z,2.65
2023-05-10T15:09:45.078Z,2.78
2023-05-10T15:12:47.992Z,4.60
2023-05-10T15:15:51.053Z,1.90
2023-05-10T15:18:54.896Z,5.25
2023-05-10T15:21:57.388Z,2.78
2023-05-10T15:25:00.504Z,3.60
2023-05-10T15:28:04.224Z,1.77
2023-05-10T15:31:07.935Z,2.05
2023-05-10T15:34:10.725Z,1.77
2023-05-10T15:37:13.131Z,1.85
2023-05-10T15:40:16.135Z,2.83
2023-05-10T15:43:19.232Z,2.25
2023-05-10T15:46:22.972Z,2.05
2023-05-10T15:49:25.555Z,2.00
2023-05-10T15:52:28.355Z,2.60
2023-05-10T15:55:30.668Z,2.40
2023-05-10T15:58:33.277Z,5.57
2023-05-10T16:01:37.145Z,12.15
2023-05-10T16:04:40.190Z,19.02
2023-05-10T16:07:42.954Z,26.10
2023-05-10T16:10:45.715Z,21.35
2023-05-10T16:13:48.330Z,17.23
2023-05-10T16:16:50.866Z,13.13
2023-05-10T16:19:53.664Z,16.02
2023-05-10T16:22:56.425Z,12.23
2023-05-10T16:25:58.987Z,10.20
2023-05-10T16:29:02.156Z,14.25
2023-05-10T16:32:05.141Z,10.15
2023-05-10T16:35:07.752Z,7.68
2023-05-10T16:38:10.212Z,9.43
2023-05-10T16:41:13.302Z,7.68
2023-05-10T16:44:17.601Z,8.82
2023-05-10T16:47:21.272Z,7.63
2023-05-10T16:50:24.578Z,7.68
2023-05-10T16:53:27.080Z,6.65
2023-05-10T16:56:29.760Z,6.60
2023-05-10T16:59:32.958Z,6.20
2023-05-10T17:02:36.237Z,5.32
2023-05-10T17:05:39.712Z,5.22
2023-05-10T17:08:43.501Z,6.55
2023-05-10T17:11:46.421Z,8.70
2023-05-10T17:14:49.596Z,4.78
2023-05-10T17:17:52.390Z,4.13
2023-05-10T17:20:55.215Z,5.38
2023-05-10T17:23:58.676Z,5.50
2023-05-10T17:27:01.258Z,3.80
2023-05-10T17:30:04.213Z,5.40
2023-05-10T17:33:07.436Z,4.90
2023-05-10T17:36:10.482Z,3.45
2023-05-10T17:39:13.241Z,4.28
2023-05-10T17:42:16.485Z,4.45
2023-05-10T17:45:19.850Z,3.45
2023-05-10T17:48:22.779Z,4.68
2023-05-10T17:51:25.170Z,3.55
2023-05-10T17:54:28.164Z,4.28
2023-05-10T17:57:31.015Z,4.78
2023-05-10T18:00:33.912Z,3.70
2023-05-10T18:03:36.271Z,3.80
2023-05-10T18:06:38.594Z,3.53
2023-05-10T18:09:41.629Z,3.75
2023-05-10T18:12:44.632Z,3.72
2023-05-10T18:15:47.217Z,3.70
2023-05-10T18:18:49.877Z,3.70
2023-05-10T18:21:53.485Z,3.33
2023-05-10T18:24:56.286Z,3.10
2023-05-10T18:27:59.001Z,4.25
2023-05-10T18:31:01.424Z,3.88
2023-05-10T18:34:03.959Z,4.40
2023-05-10T18:37:07.044Z,7.13
2023-05-10T18:40:09.560Z,3.92
2023-05-10T18:43:11.549Z,3.63
2023-05-10T18:46:13.979Z,3.38
2023-05-10T18:49:16.321Z,3.55
2023-05-10T18:52:19.112Z,2.75
2023-05-10T18:55:21.086Z,3.78
2023-05-10T18:58:23.963Z,3.55
2023-05-10T19:01:26.450Z,3.17
2023-05-10T19:04:28.832Z,3.08
2023-05-10T19:07:31.712Z,3.60
2023-05-10T19:10:34.089Z,3.17
2023-05-10T19:13:37.139Z,2.78
2023-05-10T19:16:41.618Z,3.15
2023-05-10T19:19:45.699Z,3.75
2023-05-10T19:23:02.612Z,4.60
2023-05-10T19:26:11.813Z,2.53
2023-05-10T19:29:16.029Z,3.13
2023-05-10T19:32:19.507Z,3.00
2023-05-10T19:35:23.112Z,3.33
2023-05-10T19:38:25.998Z,2.67
2023-05-10T19:41:28.262Z,4.30
2023-05-10T19:44:30.939Z,2.75
2023-05-10T19:47:36.665Z,5.65
2023-05-10T19:50:41.195Z,4.30
2023-05-10T19:53:43.821Z,5.43
2023-05-10T19:56:46.616Z,4.28
2023-05-10T19:59:49.882Z,3.28
2023-05-10T20:02:53.372Z,2.80
2023-05-10T20:05:56.218Z,4.05
2023-05-10T20:08:58.971Z,3.03
2023-05-10T20:12:02.031Z,3.63
2023-05-10T20:15:04.989Z,2.72
2023-05-10T20:18:07.678Z,2.78
2023-05-10T20:21:11.108Z,2.70
2023-05-10T20:24:14.221Z,3.00
2023-05-10T20:27:17.281Z,2.40
2023-05-10T20:30:20.359Z,2.25
2023-05-10T20:33:22.786Z,3.53
2023-05-10T20:36:25.811Z,3.03
2023-05-10T20:39:28.333Z,2.58
2023-05-10T20:42:31.594Z,2.63
2023-05-10T20:45:34.742Z,2.08
2023-05-10T20:48:38.160Z,2.40
2023-05-10T20:51:40.894Z,2.50
2023-05-10T20:54:44.113Z,2.20
2023-05-10T20:57:47.156Z,2.05
2023-05-10T21:00:49.450Z,2.20
2023-05-10T21:03:52.180Z,1.90
2023-05-10T21:06:55.417Z,2.15
2023-05-10T21:09:59.384Z,3.15
2023-05-10T21:13:02.993Z,2.22
2023-05-10T21:16:05.840Z,2.13
2023-05-10T21:19:08.795Z,1.90
2023-05-10T21:22:11.677Z,2.10
2023-05-10T21:25:14.733Z,1.95
2023-05-10T21:28:17.460Z,2.10
2023-05-10T21:31:20.998Z,2.65
2023-05-10T21:34:23.332Z,2.15
2023-05-10T21:37:26.495Z,2.60
2023-05-10T21:40:30.007Z,1.85
2023-05-10T21:43:32.740Z,2.00
2023-05-10T21:46:35.540Z,2.13
2023-05-10T21:49:39.074Z,1.77
2023-05-10T21:52:41.770Z,2.28
2023-05-10T21:55:44.025Z,2.47
2023-05-10T21:58:47.191Z,1.85
2023-05-10T22:01:50.694Z,2.40
2023-05-10T22:04:53.224Z,2.70
2023-05-10T22:07:56.562Z,1.92
2023-05-10T22:10:59.888Z,2.17
2023-05-10T22:14:02.890Z,2.67
2023-05-10T22:17:05.662Z,2.55
2023-05-10T22:20:08.816Z,2.33
2023-05-10T22:23:11.771Z,2.45
2023-05-10T22:26:14.611Z,2.58
2023-05-10T22:29:17.244Z,2.75
2023-05-10T22:32:20.273Z,4.97
2023-05-10T22:35:23.148Z,3.65
2023-05-10T22:38:25.842Z,2.63
2023-05-10T22:41:28.583Z,3.38
2023-05-10T22:44:30.679Z,2.80
2023-05-10T22:47:33.011Z,3.08
2023-05-10T22:50:35.784Z,3.20
2023-05-10T22:53:38.423Z,4.90
2023-05-10T22:56:41.396Z,3.47
2023-05-10T22:59:44.127Z,3.35
2023-05-10T23:02:46.627Z,3.10
2023-05-10T23:05:49.385Z,2.80
2023-05-10T23:08:52.209Z,3.40
2023-05-10T23:11:54.224Z,2.72
2023-05-10T23:14:56.558Z,3.58
2023-05-10T23:17:59.383Z,3.13
2023-05-10T23:21:02.165Z,3.40
2023-05-10T23:24:05.168Z,2.85
2023-05-10T23:27:07.547Z,3.17
2023-05-10T23:30:09.572Z,3.42
2023-05-10T23:33:12.389Z,2.63
2023-05-10T23:36:15.381Z,2.72
2023-05-10T23:39:18.267Z,2.92
2023-05-10T23:42:20.984Z,4.22
2023-05-10T23:45:24.898Z,3.35
2023-05-10T23:48:28.285Z,2.60
2023-05-10T23:51:31.394Z,3.47
2023-05-10T23:54:34.583Z,3.25
2023-05-10T23:57:37.958Z,2.78
